CheckWX is a tool to help pilots better visualize weather data.  It is not intended as a substitute for an official pre-flight weather briefing.

06:45:23 UTC

CYYZ METAR
Lester B Pearson International Airport
Toronto, Canada
Current

45 mins ago

CYYZ 210600Z 28007KT 180V320 15SM SKC 06/03 A3003 RMK SLP175
Observed
May-21 @ 06:00 UTC
Wind
  • 280° at 7 KTS
Visibility
15 SM
Flight Rules
VFR
Cloud Levels
  • Clear skies
Temperature
C / 43°F
Dewpoint
C / 37°F
Humidity
81%
Altimeter
30.03" Hg
Pressure
1016.92 hPa
Previous

2 hours ago

CYYZ 210500Z 30006KT 200V360 15SM SKC 07/04 A3003 RMK SLP173
Observed
May-21 @ 05:00 UTC
Wind
  • 300° at 6 KTS
Visibility
15 SM
Flight Rules
VFR
Cloud Levels
  • Clear skies
Temperature
C / 45°F
Dewpoint
C / 39°F
Humidity
81%
Altimeter
30.03" Hg
Pressure
1016.92 hPa
Previous

3 hours ago

CYYZ 210400Z 31009KT 15SM SKC 08/04 A3002 RMK SLP170
Observed
May-21 @ 04:00 UTC
Wind
  • 310° at 9 KTS
Visibility
15 SM
Flight Rules
VFR
Cloud Levels
  • Clear skies
Temperature
C / 46°F
Dewpoint
C / 39°F
Humidity
76%
Altimeter
30.02" Hg
Pressure
1016.62 hPa